Time;durP1;ratioP1;P1;durP2;ratioP2;P2;SDS_P1;SDS_P2;PMS_P1;PMS_P2;Temp;Humidity;BMP_temperature;BMP_pressure;BME280_temperature;BME280_humidity;BME280_pressure;Samples;Min_cycle;Max_cycle;Signal;HPM_P1;HPM_P2
2021/12/26 00:00:53;;;;;;;7.57;4.40;;;-6.40;99.90;;;;;;5153955;27;20054;-59
2021/12/26 00:03:20;;;;;;;6.50;4.15;;;-6.40;99.90;;;;;;5130104;27;20054;-59
2021/12/26 00:05:46;;;;;;;7.95;4.10;;;-6.30;99.90;;;;;;5146664;27;20089;-59
2021/12/26 00:08:12;;;;;;;6.20;3.90;;;-6.40;99.90;;;;;;5154773;27;20054;-60
2021/12/26 00:10:38;;;;;;;7.43;3.90;;;-6.40;99.90;;;;;;5155584;27;20095;-59
2021/12/26 00:13:04;;;;;;;5.18;3.30;;;-6.40;99.90;;;;;;5135473;27;20042;-60
2021/12/26 00:15:30;;;;;;;6.50;4.15;;;-6.30;99.90;;;;;;5154613;27;20047;-60
2021/12/26 00:17:56;;;;;;;7.97;3.85;;;-6.30;99.90;;;;;;5136048;27;20162;-59
2021/12/26 00:20:22;;;;;;;9.02;4.05;;;-6.30;99.90;;;;;;5155630;27;20047;-58
2021/12/26 00:22:48;;;;;;;6.47;3.72;;;-6.30;99.90;;;;;;5153601;27;20082;-61
2021/12/26 00:25:15;;;;;;;5.72;3.78;;;-6.30;99.90;;;;;;5146776;27;20155;-59
2021/12/26 00:27:41;;;;;;;6.22;3.50;;;-6.30;99.90;;;;;;5136063;27;20046;-59
2021/12/26 00:30:12;;;;;;;6.35;3.40;;;-6.30;99.90;;;;;;5154211;27;20034;-59
2021/12/26 00:32:38;;;;;;;6.88;3.72;;;-6.30;99.90;;;;;;5154977;27;20046;-61
2021/12/26 00:35:04;;;;;;;6.68;3.33;;;-6.30;99.90;;;;;;5133655;27;20553;-59
2021/12/26 00:37:30;;;;;;;7.53;3.65;;;-6.30;99.90;;;;;;5153893;27;20431;-59
2021/12/26 00:39:55;;;;;;;6.63;3.40;;;-6.40;99.90;;;;;;5136366;27;20043;-59
2021/12/26 00:42:21;;;;;;;5.85;3.38;;;-6.40;99.90;;;;;;5101567;27;20119;-60
2021/12/26 00:44:47;;;;;;;6.88;3.80;;;-6.40;99.90;;;;;;5118419;27;20042;-60
2021/12/26 00:47:13;;;;;;;7.45;3.50;;;-6.40;99.90;;;;;;5134300;27;20046;-59
2021/12/26 00:49:40;;;;;;;5.57;3.72;;;-6.40;99.90;;;;;;5135569;27;20139;-62
2021/12/26 00:52:07;;;;;;;7.90;3.50;;;-6.40;99.90;;;;;;5136553;27;20066;-59
2021/12/26 00:54:33;;;;;;;6.80;3.72;;;-6.50;99.90;;;;;;5115702;27;20388;-59
2021/12/26 00:56:58;;;;;;;5.90;3.47;;;-6.40;99.90;;;;;;5134434;27;20121;-59
2021/12/26 00:59:25;;;;;;;7.22;3.67;;;-6.40;99.90;;;;;;5112829;27;20059;-60
2021/12/26 01:01:53;;;;;;;6.70;3.75;;;-6.40;99.90;;;;;;5152026;27;20050;-59
2021/12/26 01:04:19;;;;;;;6.38;3.40;;;-6.40;99.90;;;;;;5153591;27;20137;-60
2021/12/26 01:06:45;;;;;;;6.03;3.50;;;-6.40;99.90;;;;;;5151327;27;20114;-61
2021/12/26 01:09:15;;;;;;;6.85;3.65;;;-6.50;99.90;;;;;;5145793;27;20112;-59
2021/12/26 01:11:47;;;;;;;6.88;3.35;;;-6.50;99.90;;;;;;5152633;27;20046;-61
2021/12/26 01:14:14;;;;;;;7.40;3.80;;;-6.50;99.90;;;;;;5148647;27;20042;-59
2021/12/26 01:16:41;;;;;;;5.60;3.10;;;-6.50;99.90;;;;;;5134010;27;20047;-60
2021/12/26 01:19:19;;;;;;;6.05;3.22;;;-6.50;99.90;;;;;;5132786;27;20126;-61
2021/12/26 01:21:45;;;;;;;5.15;3.28;;;-6.50;99.90;;;;;;5149932;27;20413;-59
2021/12/26 01:24:14;;;;;;;5.78;3.10;;;-6.50;99.90;;;;;;5153413;27;20046;-59
2021/12/26 01:26:40;;;;;;;5.32;3.20;;;-6.50;99.90;;;;;;5135079;27;20118;-59
2021/12/26 01:29:06;;;;;;;5.65;3.28;;;-6.50;99.90;;;;;;5139021;27;20549;-66
2021/12/26 01:31:33;;;;;;;7.03;3.72;;;-6.50;99.90;;;;;;5153830;27;20046;-59
2021/12/26 01:34:03;;;;;;;6.32;3.00;;;-6.40;99.90;;;;;;5153482;27;20381;-59
2021/12/26 01:36:31;;;;;;;6.38;3.50;;;-6.40;99.90;;;;;;5133304;27;20046;-61
2021/12/26 01:38:59;;;;;;;7.93;3.67;;;-6.40;99.90;;;;;;5114817;27;20085;-60
2021/12/26 01:41:26;;;;;;;5.55;3.13;;;-6.30;99.90;;;;;;5151323;27;20404;-60
2021/12/26 01:43:57;;;;;;;6.60;3.42;;;-6.30;99.90;;;;;;5153099;27;20050;-60
2021/12/26 01:46:27;;;;;;;6.72;3.42;;;-6.30;99.90;;;;;;5152991;27;20403;-59
2021/12/26 01:49:21;;;;;;;8.65;3.75;;;-6.30;99.90;;;;;;5153393;27;20129;-61
2021/12/26 01:51:49;;;;;;;11.60;4.07;;;-6.30;99.90;;;;;;5139151;27;20126;-59
2021/12/26 01:54:30;;;;;;;6.75;3.78;;;-6.40;99.90;;;;;;5132058;27;20058;-61
2021/12/26 01:56:56;;;;;;;10.05;3.80;;;-6.40;99.90;;;;;;5114401;27;20051;-60
2021/12/26 01:59:22;;;;;;;7.50;3.25;;;-6.30;99.90;;;;;;5140905;27;20046;-59
2021/12/26 02:01:48;;;;;;;6.18;3.10;;;-6.40;99.90;;;;;;5153508;27;20058;-60
2021/12/26 02:04:14;;;;;;;7.45;3.40;;;-6.40;99.90;;;;;;5152765;27;20488;-60
2021/12/26 02:06:40;;;;;;;4.68;3.13;;;-6.40;99.90;;;;;;5153618;27;20043;-58
2021/12/26 02:09:07;;;;;;;5.07;3.00;;;-6.40;99.90;;;;;;5133249;27;20484;-59
2021/12/26 02:11:33;;;;;;;6.80;2.95;;;-6.40;99.90;;;;;;5150795;27;20456;-58
2021/12/26 02:13:59;;;;;;;5.28;3.15;;;-6.40;99.90;;;;;;5153179;27;20050;-59
2021/12/26 02:16:25;;;;;;;4.72;2.83;;;-6.50;99.90;;;;;;5152411;27;20046;-59
2021/12/26 02:18:51;;;;;;;5.25;2.90;;;-6.50;99.90;;;;;;5152544;27;20445;-58
2021/12/26 02:28:40;;;;;;;4.88;2.75;;;-6.60;99.90;;;;;;5152188;27;20046;-58
2021/12/26 02:31:06;;;;;;;5.30;3.00;;;-6.50;99.90;;;;;;5152571;27;20050;-60
2021/12/26 02:33:33;;;;;;;5.47;2.88;;;-6.60;99.90;;;;;;5133996;27;20050;-60
2021/12/26 02:35:59;;;;;;;5.93;2.80;;;-6.60;99.90;;;;;;5134395;27;20065;-58
2021/12/26 02:38:25;;;;;;;4.50;2.90;;;-6.60;99.90;;;;;;5152326;27;20046;-61
2021/12/26 02:40:53;;;;;;;6.40;3.03;;;-6.60;99.90;;;;;;5151055;27;20049;-60
2021/12/26 02:43:21;;;;;;;6.78;2.78;;;-6.70;99.90;;;;;;5152363;27;20128;-59
2021/12/26 02:45:47;;;;;;;4.85;2.92;;;-6.70;99.90;;;;;;5152644;27;20047;-59
2021/12/26 02:48:13;;;;;;;4.20;2.60;;;-6.70;99.90;;;;;;5151694;27;20061;-59
2021/12/26 02:50:41;;;;;;;6.53;3.17;;;-6.60;99.90;;;;;;5151843;27;20043;-59
2021/12/26 02:53:09;;;;;;;5.65;3.05;;;-6.60;99.90;;;;;;5133840;27;20038;-58
2021/12/26 02:55:35;;;;;;;5.32;2.70;;;-6.60;99.90;;;;;;5133827;27;20088;-59
2021/12/26 02:58:06;;;;;;;6.22;2.80;;;-6.60;99.90;;;;;;5148446;27;20519;-59
2021/12/26 03:00:38;;;;;;;4.32;2.65;;;-6.50;99.90;;;;;;5151538;27;20055;-59
2021/12/26 03:03:06;;;;;;;5.30;2.90;;;-6.50;99.90;;;;;;5151843;27;20089;-60
2021/12/26 03:05:35;;;;;;;4.63;2.60;;;-6.50;99.90;;;;;;5151981;27;20039;-61
2021/12/26 03:08:02;;;;;;;6.22;3.10;;;-6.50;99.90;;;;;;5133829;27;20054;-61
2021/12/26 03:10:28;;;;;;;6.88;2.80;;;-6.50;99.90;;;;;;5151160;27;20135;-59
2021/12/26 03:12:59;;;;;;;4.32;2.35;;;-6.50;99.90;;;;;;5152699;27;20539;-59
2021/12/26 03:15:27;;;;;;;4.13;2.38;;;-6.40;99.90;;;;;;5151519;27;20039;-60
2021/12/26 03:17:55;;;;;;;3.53;2.20;;;-6.40;99.90;;;;;;5133583;27;20042;-59
2021/12/26 03:20:26;;;;;;;4.07;2.50;;;-6.40;99.90;;;;;;5135075;27;20047;-58
2021/12/26 03:22:52;;;;;;;5.22;2.28;;;-6.40;99.90;;;;;;5113098;28;20100;-59
2021/12/26 03:25:21;;;;;;;5.35;2.92;;;-6.30;99.90;;;;;;5131327;28;20159;-58
2021/12/26 03:27:49;;;;;;;4.78;2.70;;;-6.30;99.90;;;;;;5125979;27;20046;-59
2021/12/26 03:30:18;;;;;;;4.93;2.55;;;-6.30;99.90;;;;;;5151735;27;20042;-59
2021/12/26 03:32:44;;;;;;;7.22;2.70;;;-6.30;99.90;;;;;;5151606;27;20043;-59
2021/12/26 03:35:10;;;;;;;7.45;2.40;;;-6.30;99.90;;;;;;5120279;27;20053;-59
2021/12/26 03:37:38;;;;;;;4.20;2.85;;;-6.30;99.90;;;;;;5155624;27;20035;-58
2021/12/26 03:40:05;;;;;;;3.72;2.30;;;-6.40;99.90;;;;;;5154250;27;20043;-59
2021/12/26 03:42:31;;;;;;;4.10;2.50;;;-6.40;99.90;;;;;;5155707;27;20165;-59
2021/12/26 03:44:58;;;;;;;4.13;2.80;;;-6.40;99.90;;;;;;5156224;27;20050;-60
2021/12/26 03:47:24;;;;;;;4.80;2.50;;;-6.40;99.90;;;;;;5155500;27;20058;-65
2021/12/26 03:49:50;;;;;;;5.00;2.58;;;-6.40;99.90;;;;;;5154072;27;20412;-58
2021/12/26 03:52:17;;;;;;;5.78;2.60;;;-6.20;99.90;;;;;;5144487;27;20460;-59
2021/12/26 03:54:43;;;;;;;3.72;2.20;;;-6.50;99.90;;;;;;5145342;27;20776;-59
2021/12/26 03:57:09;;;;;;;4.30;2.70;;;-6.40;99.90;;;;;;5119441;27;20092;-59
2021/12/26 03:59:35;;;;;;;5.03;2.55;;;-6.50;99.90;;;;;;5152438;27;20054;-59
2021/12/26 04:02:01;;;;;;;4.63;2.80;;;-6.50;99.90;;;;;;5155285;27;20514;-59
2021/12/26 04:04:27;;;;;;;5.45;2.80;;;-6.50;99.90;;;;;;5137294;27;20108;-66
2021/12/26 04:06:53;;;;;;;5.38;2.70;;;-6.60;99.90;;;;;;5137485;27;20361;-59
2021/12/26 04:09:18;;;;;;;5.25;2.70;;;-6.50;99.90;;;;;;5155793;27;20407;-59
2021/12/26 04:11:45;;;;;;;4.25;2.50;;;-6.60;99.90;;;;;;5129086;27;20055;-58
2021/12/26 04:14:16;;;;;;;6.07;3.03;;;-6.60;99.90;;;;;;5134955;27;20043;-59
2021/12/26 04:16:42;;;;;;;6.10;2.72;;;-6.60;99.90;;;;;;5134092;27;20095;-59
2021/12/26 04:19:09;;;;;;;5.03;2.60;;;-6.60;99.90;;;;;;5119887;27;20052;-59
2021/12/26 04:21:34;;;;;;;3.65;2.58;;;-6.60;99.90;;;;;;5118675;27;20047;-59
2021/12/26 04:24:01;;;;;;;15.40;2.80;;;-6.70;99.90;;;;;;5136554;27;20039;-59
2021/12/26 04:26:27;;;;;;;5.50;2.38;;;-6.70;99.90;;;;;;5136849;27;20072;-59
2021/12/26 04:28:53;;;;;;;5.20;2.67;;;-6.70;99.90;;;;;;5136284;27;20095;-59
2021/12/26 04:31:18;;;;;;;5.20;2.72;;;-6.60;99.90;;;;;;5155117;27;20047;-59
2021/12/26 04:33:46;;;;;;;6.80;2.88;;;-6.70;99.90;;;;;;5119786;27;20043;-61
2021/12/26 04:36:13;;;;;;;6.03;2.80;;;-6.70;99.90;;;;;;5140268;27;20148;-58
2021/12/26 04:38:39;;;;;;;4.70;2.92;;;-6.70;99.90;;;;;;5154782;27;20051;-58
2021/12/26 04:41:05;;;;;;;3.65;2.40;;;-6.70;99.90;;;;;;5136228;27;20489;-59
2021/12/26 04:43:34;;;;;;;4.68;2.78;;;-6.70;99.90;;;;;;5128163;27;20395;-59
2021/12/26 04:46:03;;;;;;;4.18;2.38;;;-6.70;99.90;;;;;;5115375;27;20050;-58
2021/12/26 04:48:29;;;;;;;5.15;2.65;;;-6.70;99.90;;;;;;5136072;27;20039;-59
2021/12/26 04:50:54;;;;;;;4.15;2.50;;;-6.70;99.90;;;;;;5154548;27;20046;-59
2021/12/26 04:53:20;;;;;;;5.13;2.53;;;-6.70;99.90;;;;;;5153066;27;20080;-58
2021/12/26 04:55:46;;;;;;;4.03;2.30;;;-6.70;99.90;;;;;;5138200;27;20042;-59
2021/12/26 04:58:12;;;;;;;5.75;2.85;;;-6.70;99.90;;;;;;5136245;27;20487;-59
2021/12/26 05:00:38;;;;;;;8.07;2.65;;;-6.70;99.90;;;;;;5154369;27;20074;-59
2021/12/26 05:03:04;;;;;;;3.97;2.22;;;-6.70;99.90;;;;;;5154428;27;20049;-59
2021/12/26 05:05:31;;;;;;;5.15;2.75;;;-6.80;99.90;;;;;;5120985;27;20122;-59
2021/12/26 05:07:57;;;;;;;4.28;2.60;;;-6.70;99.90;;;;;;5115327;27;20051;-59
2021/12/26 05:10:25;;;;;;;4.15;2.50;;;-6.70;99.90;;;;;;5133950;27;20047;-59
2021/12/26 05:12:51;;;;;;;3.38;2.13;;;-6.70;99.90;;;;;;5133337;27;20464;-59
2021/12/26 05:15:17;;;;;;;5.75;2.10;;;-6.70;99.90;;;;;;5138830;27;20046;-60
2021/12/26 05:17:44;;;;;;;5.10;2.47;;;-6.70;99.90;;;;;;5135581;27;20047;-59
2021/12/26 05:20:12;;;;;;;4.80;2.80;;;-6.60;99.90;;;;;;5136017;27;20042;-60
2021/12/26 05:22:38;;;;;;;4.07;2.67;;;-6.60;99.90;;;;;;5154135;27;20047;-67
2021/12/26 05:25:06;;;;;;;4.63;2.40;;;-6.60;99.90;;;;;;5152033;27;20116;-60
2021/12/26 05:27:33;;;;;;;3.67;2.22;;;-6.60;99.90;;;;;;5143938;27;20043;-59
2021/12/26 05:29:58;;;;;;;5.03;2.50;;;-6.20;99.90;;;;;;5153647;27;20138;-59
2021/12/26 05:32:24;;;;;;;4.35;2.60;;;-6.50;99.90;;;;;;5135793;27;20127;-59
2021/12/26 05:34:50;;;;;;;4.63;2.50;;;-6.50;99.90;;;;;;5134824;27;20055;-59
2021/12/26 05:37:16;;;;;;;4.68;2.67;;;-6.50;99.90;;;;;;5134701;27;20074;-59
2021/12/26 05:39:42;;;;;;;4.32;2.45;;;-6.50;99.90;;;;;;5149295;27;20081;-59
2021/12/26 05:42:15;;;;;;;5.05;2.30;;;-6.50;99.90;;;;;;5153842;27;20042;-59
2021/12/26 05:44:44;;;;;;;4.75;2.35;;;-6.50;99.90;;;;;;5152809;27;20055;-64
2021/12/26 05:47:11;;;;;;;4.97;2.47;;;-6.40;99.90;;;;;;5153833;27;20074;-59
2021/12/26 05:49:37;;;;;;;5.07;2.60;;;-6.40;99.90;;;;;;5118040;27;20058;-58
2021/12/26 05:52:03;;;;;;;5.32;2.45;;;-6.40;99.90;;;;;;5134257;27;20099;-58
2021/12/26 05:54:29;;;;;;;5.28;2.90;;;-6.50;99.90;;;;;;5150697;27;20500;-59
2021/12/26 05:56:55;;;;;;;4.85;2.72;;;-6.50;99.90;;;;;;5107392;28;20045;-58
2021/12/26 05:59:21;;;;;;;4.50;3.05;;;-6.50;99.90;;;;;;5124716;27;20060;-59
2021/12/26 06:01:47;;;;;;;4.93;2.60;;;-6.50;99.90;;;;;;5128689;27;20536;-59
2021/12/26 06:04:12;;;;;;;5.50;3.00;;;-6.50;99.90;;;;;;5115553;27;20064;-61
2021/12/26 06:06:38;;;;;;;6.07;2.67;;;-6.60;99.90;;;;;;5115605;27;20500;-60
2021/12/26 06:09:05;;;;;;;4.22;2.55;;;-6.60;99.90;;;;;;5115963;27;20047;-59
2021/12/26 06:11:31;;;;;;;4.55;2.70;;;-6.50;99.90;;;;;;5125807;27;20046;-59
2021/12/26 06:13:57;;;;;;;7.00;2.75;;;-6.50;99.90;;;;;;5131702;27;20058;-60
2021/12/26 06:16:23;;;;;;;6.53;2.63;;;-6.60;99.90;;;;;;5129872;27;20048;-62
2021/12/26 06:18:48;;;;;;;5.80;2.90;;;-6.60;99.90;;;;;;5129132;27;20051;-65
2021/12/26 06:21:14;;;;;;;6.15;2.97;;;-6.60;99.90;;;;;;5113838;27;20053;-59
2021/12/26 06:23:40;;;;;;;5.28;2.78;;;-6.60;99.90;;;;;;5132189;27;20377;-60
2021/12/26 06:26:06;;;;;;;5.40;2.97;;;-6.60;99.90;;;;;;5130733;27;20046;-59
2021/12/26 06:28:31;;;;;;;4.00;2.55;;;-6.60;99.90;;;;;;5123908;27;20122;-59
2021/12/26 06:30:57;;;;;;;6.00;3.00;;;-6.60;99.90;;;;;;5125684;27;20480;-60
2021/12/26 06:33:23;;;;;;;5.32;3.10;;;-6.60;99.90;;;;;;5120975;27;20051;-59
2021/12/26 06:35:50;;;;;;;4.47;2.45;;;-6.60;99.90;;;;;;5121211;27;20402;-66
2021/12/26 06:38:16;;;;;;;6.53;2.95;;;-6.60;99.90;;;;;;5122818;27;20492;-58
2021/12/26 06:40:42;;;;;;;5.30;2.90;;;-6.60;99.90;;;;;;5125303;27;20044;-60
2021/12/26 06:43:08;;;;;;;5.82;3.08;;;-6.60;99.90;;;;;;5125998;27;20522;-60
2021/12/26 06:45:34;;;;;;;4.43;2.70;;;-6.60;99.90;;;;;;5131858;27;20054;-60
2021/12/26 06:48:02;;;;;;;5.07;3.15;;;-6.70;99.90;;;;;;5110571;27;20043;-60
2021/12/26 06:50:28;;;;;;;4.40;2.90;;;-6.70;99.90;;;;;;5123290;27;20070;-59
2021/12/26 06:52:54;;;;;;;4.97;2.90;;;-6.70;99.90;;;;;;5111452;27;20122;-60
2021/12/26 06:55:20;;;;;;;3.88;2.53;;;-6.70;99.90;;;;;;5118762;27;20043;-59
2021/12/26 06:57:46;;;;;;;5.15;2.90;;;-6.70;99.90;;;;;;5123633;27;20404;-58
2021/12/26 07:00:15;;;;;;;6.38;2.45;;;-6.70;99.90;;;;;;5142230;27;20090;-60
2021/12/26 07:02:42;;;;;;;5.10;3.15;;;-6.70;99.90;;;;;;5150447;27;20046;-59
2021/12/26 07:05:11;;;;;;;6.43;3.10;;;-6.70;99.90;;;;;;5127728;27;20110;-59
2021/12/26 07:07:37;;;;;;;6.00;3.30;;;-6.70;99.90;;;;;;5141640;27;20473;-59
2021/12/26 07:10:03;;;;;;;6.05;3.22;;;-6.80;99.90;;;;;;5114403;27;20093;-60
2021/12/26 07:12:29;;;;;;;6.25;3.42;;;-6.80;99.90;;;;;;5130730;27;20134;-59
2021/12/26 07:14:55;;;;;;;5.43;3.00;;;-6.80;99.90;;;;;;5124139;28;20039;-65
2021/12/26 07:17:21;;;;;;;7.35;3.38;;;-6.80;99.90;;;;;;5134253;27;20514;-60
2021/12/26 07:19:46;;;;;;;5.78;2.85;;;-6.50;99.90;;;;;;5127332;28;20035;-59
2021/12/26 07:22:12;;;;;;;6.43;3.05;;;-6.80;99.90;;;;;;5112246;28;20047;-59
2021/12/26 07:24:43;;;;;;;4.63;3.00;;;-6.80;99.90;;;;;;5141684;27;20053;-59
2021/12/26 07:27:10;;;;;;;7.65;3.63;;;-6.80;99.90;;;;;;5151082;27;20043;-63
2021/12/26 07:29:36;;;;;;;4.75;3.08;;;-6.80;99.90;;;;;;5132907;27;20054;-60
2021/12/26 07:32:02;;;;;;;5.70;3.17;;;-6.80;99.90;;;;;;5132600;27;20038;-60
2021/12/26 07:34:27;;;;;;;5.82;3.33;;;-6.80;99.90;;;;;;5111417;27;20079;-59
2021/12/26 07:36:53;;;;;;;6.95;3.10;;;-6.80;99.90;;;;;;5143109;27;20082;-60
2021/12/26 07:39:19;;;;;;;6.18;3.78;;;-6.80;99.90;;;;;;5151251;27;20042;-62
2021/12/26 07:41:44;;;;;;;5.85;3.13;;;-6.80;99.90;;;;;;5133204;27;20071;-60
2021/12/26 07:44:10;;;;;;;4.72;3.20;;;-6.90;99.90;;;;;;5097038;27;20070;-60
2021/12/26 07:46:36;;;;;;;6.18;3.80;;;-6.90;99.90;;;;;;5151275;27;20054;-60
2021/12/26 07:49:02;;;;;;;7.82;3.30;;;-6.90;99.90;;;;;;5150503;27;20050;-61
2021/12/26 07:51:28;;;;;;;6.47;3.47;;;-6.80;99.90;;;;;;5097540;28;20457;-61
2021/12/26 07:53:58;;;;;;;5.55;3.72;;;-6.90;99.90;;;;;;5130843;28;20046;-60
2021/12/26 07:56:24;;;;;;;6.30;3.83;;;-6.90;99.90;;;;;;5148503;27;20069;-60
2021/12/26 07:58:50;;;;;;;8.02;3.75;;;-6.90;99.90;;;;;;5151119;27;20125;-59
2021/12/26 08:01:16;;;;;;;5.72;3.47;;;-6.80;99.90;;;;;;5132390;27;20050;-59
2021/12/26 08:03:41;;;;;;;6.55;3.78;;;-6.80;99.90;;;;;;5151607;27;20115;-60
2021/12/26 08:06:08;;;;;;;6.80;3.88;;;-6.80;99.90;;;;;;5131912;27;20043;-59
2021/12/26 08:08:36;;;;;;;5.13;3.35;;;-6.80;99.90;;;;;;5132176;27;20118;-60
2021/12/26 08:11:02;;;;;;;7.00;3.97;;;-6.80;99.90;;;;;;5151370;27;20048;-66
2021/12/26 08:13:30;;;;;;;7.13;4.30;;;-6.80;99.90;;;;;;5130921;27;20449;-60
2021/12/26 08:15:55;;;;;;;6.25;3.85;;;-6.70;99.90;;;;;;5148776;27;20054;-60
2021/12/26 08:18:21;;;;;;;7.93;4.20;;;-6.70;99.90;;;;;;5149875;27;20495;-60
2021/12/26 08:20:47;;;;;;;5.45;3.70;;;-6.70;99.90;;;;;;5133651;27;20047;-60
2021/12/26 08:23:12;;;;;;;5.88;3.85;;;-6.70;99.90;;;;;;5153686;27;20043;-59
2021/12/26 08:25:38;;;;;;;6.97;4.18;;;-6.70;99.90;;;;;;5141206;27;20518;-60
2021/12/26 08:28:04;;;;;;;7.57;4.35;;;-6.70;99.90;;;;;;5106261;27;20057;-63
2021/12/26 08:30:30;;;;;;;6.90;4.13;;;-6.60;99.90;;;;;;5123642;27;20139;-60
2021/12/26 08:32:59;;;;;;;6.82;4.50;;;-6.60;99.90;;;;;;5126185;27;20046;-61
2021/12/26 08:35:26;;;;;;;5.25;3.70;;;-6.60;99.90;;;;;;5144448;27;20597;-60
2021/12/26 08:37:52;;;;;;;6.85;3.90;;;-6.60;99.90;;;;;;5131016;27;20067;-61
2021/12/26 08:40:17;;;;;;;9.85;3.97;;;-6.50;99.90;;;;;;5128441;27;20423;-59
2021/12/26 08:42:43;;;;;;;7.53;4.03;;;-6.50;99.90;;;;;;5150796;27;20195;-57
2021/12/26 08:45:10;;;;;;;6.88;4.22;;;-6.50;99.90;;;;;;5152985;27;20050;-63
2021/12/26 08:47:35;;;;;;;8.90;4.88;;;-6.40;99.90;;;;;;5154335;27;20050;-60
2021/12/26 08:50:02;;;;;;;6.70;4.10;;;-6.40;99.90;;;;;;5129457;27;20415;-59
2021/12/26 08:52:28;;;;;;;7.00;4.18;;;-6.40;99.90;;;;;;5137817;27;20287;-60
2021/12/26 08:54:53;;;;;;;7.45;4.68;;;-6.40;99.90;;;;;;5144836;27;20042;-60
2021/12/26 08:57:19;;;;;;;7.13;4.20;;;-6.40;99.90;;;;;;5147659;27;20035;-60
2021/12/26 08:59:45;;;;;;;6.38;4.18;;;-6.40;99.90;;;;;;5149044;27;20055;-60
2021/12/26 09:02:10;;;;;;;9.18;4.53;;;-6.40;99.90;;;;;;5127177;27;20494;-64
2021/12/26 09:04:38;;;;;;;9.82;5.07;;;-6.40;99.90;;;;;;5134798;27;20078;-61
2021/12/26 09:07:04;;;;;;;6.88;4.25;;;-6.30;99.90;;;;;;5154108;27;20479;-61
2021/12/26 09:09:30;;;;;;;8.18;4.35;;;-6.30;99.90;;;;;;5114094;27;20308;-59
2021/12/26 09:11:59;;;;;;;7.88;4.45;;;-6.20;99.90;;;;;;5134512;27;20046;-59
2021/12/26 09:14:28;;;;;;;9.18;4.20;;;-6.20;99.90;;;;;;5143695;27;20047;-61
2021/12/26 09:16:54;;;;;;;5.63;3.83;;;-6.10;99.90;;;;;;5131023;27;20050;-60
2021/12/26 09:19:20;;;;;;;7.35;3.83;;;-6.00;99.90;;;;;;5148063;27;20050;-60
2021/12/26 09:21:46;;;;;;;9.85;3.80;;;-5.90;99.90;;;;;;5150702;27;20054;-60
2021/12/26 09:24:11;;;;;;;7.38;3.92;;;-5.80;99.90;;;;;;5108594;27;20051;-61
2021/12/26 09:26:37;;;;;;;7.35;4.13;;;-5.80;99.90;;;;;;5114378;27;20126;-60
2021/12/26 09:29:03;;;;;;;8.20;4.30;;;-5.70;99.90;;;;;;5132212;27;20475;-60
2021/12/26 09:31:29;;;;;;;7.93;4.15;;;-5.60;99.90;;;;;;5104270;27;20163;-59
2021/12/26 09:33:55;;;;;;;7.70;3.78;;;-5.60;99.90;;;;;;5129120;27;20517;-59
2021/12/26 09:36:20;;;;;;;7.43;4.18;;;-5.50;99.90;;;;;;5130281;27;20039;-59
2021/12/26 09:38:46;;;;;;;5.07;3.55;;;-5.50;99.90;;;;;;5116280;27;20035;-59
2021/12/26 09:41:12;;;;;;;5.78;3.63;;;-5.50;99.90;;;;;;5150326;27;20043;-62
2021/12/26 09:43:39;;;;;;;6.97;4.00;;;-5.40;99.90;;;;;;5092782;27;20042;-60
2021/12/26 09:46:04;;;;;;;5.07;3.33;;;-5.40;99.90;;;;;;5141423;27;20117;-62
2021/12/26 09:48:30;;;;;;;5.93;3.63;;;-5.40;99.90;;;;;;5123681;27;20507;-59
2021/12/26 09:50:57;;;;;;;5.43;3.40;;;-5.30;99.90;;;;;;5146520;27;20055;-59
2021/12/26 09:53:23;;;;;;;6.20;3.97;;;-5.30;99.90;;;;;;5145165;27;20171;-61
2021/12/26 09:55:49;;;;;;;7.63;3.45;;;-5.20;99.90;;;;;;5133881;27;20054;-56
2021/12/26 09:58:15;;;;;;;8.00;3.75;;;-5.10;99.90;;;;;;5098971;27;20130;-58
2021/12/26 10:00:43;;;;;;;6.05;3.80;;;-5.10;99.90;;;;;;5109557;27;20134;-58
2021/12/26 10:03:17;;;;;;;6.13;2.97;;;-5.10;99.90;;;;;;5131995;27;20043;-58
2021/12/26 10:06:18;;;;;;;7.63;3.65;;;-5.10;99.90;;;;;;5141132;27;20047;-58
2021/12/26 10:08:53;;;;;;;6.00;4.00;;;-5.00;99.90;;;;;;5083489;27;20047;-57
2021/12/26 10:11:20;;;;;;;7.25;3.85;;;-4.90;99.90;;;;;;5146168;27;20164;-60
2021/12/26 10:13:56;;;;;;;7.55;3.92;;;-4.90;99.90;;;;;;5146271;27;20480;-57
2021/12/26 10:16:25;;;;;;;8.57;4.10;;;-4.90;99.90;;;;;;5139537;27;20047;-61
2021/12/26 10:18:51;;;;;;;5.90;3.85;;;-4.80;99.90;;;;;;5141345;27;20035;-59
2021/12/26 10:21:48;;;;;;;6.53;4.07;;;-4.70;99.90;;;;;;5135221;27;20042;-57
2021/12/26 10:24:26;;;;;;;6.97;4.00;;;-4.70;99.90;;;;;;5147644;27;20046;-57
2021/12/26 10:26:56;;;;;;;6.30;3.78;;;-4.60;99.90;;;;;;5143720;27;20437;-56
2021/12/26 10:29:26;;;;;;;6.07;4.25;;;-4.60;99.90;;;;;;5144318;27;20046;-63
2021/12/26 10:32:10;;;;;;;12.73;4.47;;;-4.50;99.90;;;;;;5144891;27;20053;-58
2021/12/26 10:34:46;;;;;;;5.75;3.58;;;-4.50;99.90;;;;;;5147183;27;20098;-57
2021/12/26 10:37:28;;;;;;;6.82;3.70;;;-4.40;99.90;;;;;;5134158;27;20124;-60
2021/12/26 10:40:04;;;;;;;5.57;3.28;;;-4.30;99.90;;;;;;5124285;27;20054;-60
2021/12/26 10:42:35;;;;;;;5.30;3.05;;;-4.30;99.90;;;;;;5142591;27;20469;-56
2021/12/26 10:45:12;;;;;;;7.65;3.92;;;-4.20;99.90;;;;;;5114891;27;20095;-61
2021/12/26 10:47:41;;;;;;;5.57;3.47;;;-4.10;99.90;;;;;;5147849;27;20076;-57
2021/12/26 10:50:09;;;;;;;4.90;3.20;;;-4.00;99.90;;;;;;5146356;27;20521;-58
2021/12/26 10:52:41;;;;;;;7.43;4.60;;;-3.80;99.90;;;;;;5110022;27;20114;-56
2021/12/26 10:55:17;;;;;;;7.32;4.25;;;-3.90;99.90;;;;;;5149123;27;20038;-58
2021/12/26 10:57:46;;;;;;;6.47;3.42;;;-3.90;99.90;;;;;;5146856;27;20042;-57
2021/12/26 11:00:17;;;;;;;5.43;3.30;;;-3.80;99.90;;;;;;5109526;27;20050;-57
2021/12/26 11:02:47;;;;;;;5.97;3.80;;;-3.70;99.90;;;;;;5147373;27;20506;-58
2021/12/26 11:05:17;;;;;;;4.90;3.35;;;-3.70;99.90;;;;;;5151798;27;20042;-59
2021/12/26 11:07:54;;;;;;;5.95;3.65;;;-3.30;99.90;;;;;;5144900;27;20564;-57
2021/12/26 11:10:22;;;;;;;8.38;4.05;;;-3.60;99.90;;;;;;5151577;27;20070;-59
2021/12/26 11:12:57;;;;;;;12.23;3.90;;;-3.50;99.90;;;;;;5145964;27;20064;-56
2021/12/26 11:15:24;;;;;;;;;;;-3.50;99.90;;;;;;5149128;27;20369;-56
2021/12/26 11:17:56;;;;;;;6.05;3.22;;;-3.40;99.90;;;;;;5127514;27;19927;-60
2021/12/26 11:20:39;;;;;;;5.95;3.25;;;-3.40;99.90;;;;;;5139448;27;20091;-55
2021/12/26 11:23:11;;;;;;;6.28;3.40;;;-3.40;99.90;;;;;;5122085;27;21758;-58
2021/12/26 11:25:40;;;;;;;6.72;3.50;;;-3.30;99.90;;;;;;5147880;27;20043;-58
2021/12/26 11:28:06;;;;;;;5.90;3.60;;;-3.20;99.90;;;;;;5145013;27;20124;-54
2021/12/26 11:30:32;;;;;;;6.40;2.92;;;-3.20;99.90;;;;;;5146242;27;20479;-62
2021/12/26 11:33:00;;;;;;;6.85;3.90;;;-3.20;99.90;;;;;;5132353;27;20137;-57
2021/12/26 11:35:29;;;;;;;5.63;3.28;;;-2.90;99.90;;;;;;5096750;27;20453;-57
2021/12/26 11:37:56;;;;;;;4.63;3.03;;;-3.00;99.90;;;;;;5145128;27;20034;-57
2021/12/26 11:40:22;;;;;;;5.78;3.17;;;-3.00;99.90;;;;;;5147423;27;20049;-55
2021/12/26 11:42:55;;;;;;;5.93;3.42;;;-2.90;99.90;;;;;;5140098;27;20043;-57
2021/12/26 11:45:36;;;;;;;6.65;3.53;;;-2.90;99.90;;;;;;5131182;27;20093;-56
2021/12/26 11:48:26;;;;;;;6.70;3.65;;;-2.90;99.90;;;;;;5139163;27;20131;-55
2021/12/26 11:51:19;;;;;;;5.38;3.35;;;-2.50;99.90;;;;;;5144914;27;20034;-59
2021/12/26 11:54:10;;;;;;;6.40;3.53;;;-2.70;99.90;;;;;;5129316;27;20054;-57
2021/12/26 11:56:44;;;;;;;5.82;3.20;;;-2.70;99.90;;;;;;5134206;27;20065;-60
2021/12/26 11:59:38;;;;;;;6.75;3.38;;;-2.60;99.90;;;;;;5128406;27;20143;-57
2021/12/26 12:02:04;;;;;;;5.82;3.20;;;-2.60;99.90;;;;;;5145846;27;20089;-56
2021/12/26 12:04:30;;;;;;;4.85;3.28;;;-2.60;99.90;;;;;;5143843;27;20706;-57
2021/12/26 12:07:04;;;;;;;5.35;2.70;;;-2.50;99.90;;;;;;5127077;27;20110;-58
2021/12/26 12:09:37;;;;;;;4.65;3.00;;;-2.40;99.90;;;;;;5145991;27;20407;-56
2021/12/26 12:12:11;;;;;;;7.68;3.30;;;-2.40;99.90;;;;;;5150319;27;20047;-58
2021/12/26 12:14:52;;;;;;;4.22;2.70;;;-2.30;99.90;;;;;;5151218;27;20050;-58
2021/12/26 12:17:30;;;;;;;6.10;3.15;;;-2.20;99.90;;;;;;5141003;27;20039;-59
2021/12/26 12:20:11;;;;;;;3.63;2.40;;;-2.20;99.90;;;;;;5148317;27;20050;-56
2021/12/26 12:22:57;;;;;;;6.07;3.22;;;-2.20;99.90;;;;;;5149353;27;20046;-54
2021/12/26 12:25:36;;;;;;;5.22;3.67;;;-2.10;99.90;;;;;;5146429;27;20391;-58
2021/12/26 12:28:21;;;;;;;6.72;3.15;;;-2.10;99.90;;;;;;5142305;27;20035;-56
2021/12/26 12:31:06;;;;;;;4.43;2.75;;;-2.00;99.90;;;;;;5148806;27;20038;-57
2021/12/26 12:33:33;;;;;;;7.32;3.25;;;-2.00;99.90;;;;;;5146133;27;20064;-56
2021/12/26 12:36:05;;;;;;;6.47;3.05;;;-1.90;99.90;;;;;;5132703;27;21729;-56
2021/12/26 12:38:39;;;;;;;4.60;3.00;;;-1.90;99.90;;;;;;5132470;27;20039;-55
2021/12/26 12:41:29;;;;;;;5.97;3.03;;;-1.90;99.90;;;;;;5148029;27;20053;-55
2021/12/26 12:43:57;;;;;;;4.60;2.83;;;-1.90;99.90;;;;;;5086790;27;20131;-54
2021/12/26 12:46:23;;;;;;;5.38;3.30;;;-1.90;99.90;;;;;;5133243;27;20047;-56
2021/12/26 12:49:03;;;;;;;6.53;3.40;;;-1.80;99.90;;;;;;5148220;27;20050;-53
2021/12/26 12:51:41;;;;;;;5.13;2.88;;;-1.80;99.90;;;;;;5143578;27;20505;-54
2021/12/26 12:54:32;;;;;;;7.97;3.80;;;-1.80;99.90;;;;;;5151756;27;20052;-57
2021/12/26 12:57:04;;;;;;;4.65;3.28;;;-1.70;99.90;;;;;;5141472;27;20046;-52
2021/12/26 12:59:38;;;;;;;5.95;2.45;;;-1.70;99.90;;;;;;5117932;27;20530;-55
2021/12/26 13:02:10;;;;;;;6.47;3.10;;;-1.70;99.90;;;;;;5147625;27;20043;-55